Aérodrome :
LOGIN :

S'inscrire | Disclaimer

   EN    FR    IT 

 










Légende :    VFR   VFR Marginal   IFR   IFR Intensif   IFR Très Intensif
Visi : 
Plafond : 
>= 8 km
>= 3000ft
5 à 8 km
1000 à 3000 ft
1500m à 5 km
500 à 1000 ft
800 à 1500m
200 à 500 ft
< 800m
< 200 ft
Symboles :   Orages  Brouillard  Fortes neiges  Fortes précipitations  Vent > 20 kt
SIGMETs :   Divers  Orages  Givrage  Turbulence  Onde Orograph.  Cendres Volcan.







- Altitude de l'aérodrome : 574 ft


LOXT - Brumowski Air Base

METAR N/A
TAF TAF LOXT
Valide du 21 à 15h jusqu'au 22 à 00h UTC


211415Z 2115/2124 25012KT 9999 FEW020 BKN040
TEMPO 2115/2117 25015G25KT -RA
TEMPO 2117/2124 -RA FEW015 BKN025
BECMG 2121/2123 22005KT
Pas de NOTAMs connus pour ce terrain.
1 SIGMET publié pour la FIR Wien (LOVV) :
 
Givrage fort
LOVV SIGMET 3 VALID 211430/211600 LOWW
LOVV WIEN FIR SEV ICE FCST WI N4715 E01300 - N4900 E01345 - N4900 E01530 - N4710 E01540 - N4715 E01300 7000FT/FL180 WKN=



MET'MAP, la Météo Aéronautique d'un coup d'oeil ! - Copyright ORBIFLY Décembre 2007 - Disclaimer

ORBIFLY MET'MAP TEAM :

Programmation & Développement : Alexandra Zaïnal
Conception & Développement : Baudouin d'Aumeries
Co-Programmation & Développement : Marc-Olivier Méhu
Soutien technique & logistique : Manuel Goepfert

Contact : metmap@orbifly.com




SOURCES & CREDITS :

   NOAA